createdAt,value
2023-09-02T00:00:43.831Z,5.53
2023-09-02T00:03:10.646Z,4.80
2023-09-02T00:05:37.437Z,4.60
2023-09-02T00:08:04.521Z,4.83
2023-09-02T00:10:31.294Z,4.40
2023-09-02T00:12:58.115Z,4.47
2023-09-02T00:15:24.897Z,4.43
2023-09-02T00:17:51.652Z,4.80
2023-09-02T00:20:19.247Z,4.80
2023-09-02T00:22:46.000Z,4.40
2023-09-02T00:25:12.760Z,4.27
2023-09-02T00:27:39.546Z,4.23
2023-09-02T00:30:07.024Z,4.37
2023-09-02T00:32:34.917Z,4.70
2023-09-02T00:35:01.783Z,3.57
2023-09-02T00:37:28.681Z,4.17
2023-09-02T00:39:55.544Z,3.90
2023-09-02T00:42:23.979Z,4.67
2023-09-02T00:44:50.823Z,4.90
2023-09-02T00:47:18.081Z,3.33
2023-09-02T00:49:45.257Z,4.40
2023-09-02T00:52:12.104Z,3.73
2023-09-02T00:54:39.001Z,4.00
2023-09-02T00:57:07.314Z,3.93
2023-09-02T00:59:34.957Z,4.70
2023-09-02T01:02:03.228Z,4.10
2023-09-02T01:04:30.877Z,4.60
2023-09-02T01:06:58.440Z,4.13
2023-09-02T01:09:25.383Z,3.87
2023-09-02T01:11:52.061Z,4.17
2023-09-02T01:14:18.835Z,4.23
2023-09-02T01:16:45.660Z,4.50
2023-09-02T01:19:16.754Z,4.60
2023-09-02T01:22:13.102Z,4.63
2023-09-02T01:24:54.585Z,4.67
2023-09-02T01:27:26.023Z,4.47
2023-09-02T01:30:03.920Z,5.07
2023-09-02T01:32:38.550Z,4.40
2023-09-02T01:35:07.410Z,5.30
2023-09-02T01:37:38.017Z,4.33
2023-09-02T01:40:08.473Z,4.40
2023-09-02T01:42:36.745Z,4.40
2023-09-02T01:45:04.183Z,4.90
2023-09-02T01:47:32.088Z,5.17
2023-09-02T01:50:00.058Z,5.03
2023-09-02T01:52:27.804Z,5.07
2023-09-02T01:54:55.448Z,3.80
2023-09-02T01:57:22.221Z,4.37
2023-09-02T01:59:49.045Z,4.03
2023-09-02T02:02:17.778Z,4.93
2023-09-02T02:04:50.374Z,5.30
2023-09-02T02:07:18.659Z,5.37
2023-09-02T02:09:51.693Z,4.97
2023-09-02T02:12:19.546Z,5.17
2023-09-02T02:14:46.770Z,4.23
2023-09-02T02:17:14.410Z,4.63
2023-09-02T02:19:43.900Z,4.70
2023-09-02T02:22:11.238Z,4.80
2023-09-02T02:24:37.997Z,4.47
2023-09-02T02:27:04.873Z,3.70
2023-09-02T02:29:31.726Z,5.50
2023-09-02T02:31:58.512Z,4.80
2023-09-02T02:34:25.306Z,4.37
2023-09-02T02:36:52.201Z,4.50
2023-09-02T02:39:19.464Z,4.53
2023-09-02T02:41:46.189Z,4.07
2023-09-02T02:44:12.938Z,4.43
2023-09-02T02:46:39.980Z,3.53
2023-09-02T02:49:06.736Z,3.83
2023-09-02T02:51:33.489Z,4.10
2023-09-02T02:54:00.256Z,4.10
2023-09-02T02:56:27.019Z,4.30
2023-09-02T02:58:55.937Z,3.47
2023-09-02T03:01:22.949Z,3.57
2023-09-02T03:03:49.716Z,3.60
2023-09-02T03:06:21.337Z,3.80
2023-09-02T03:08:48.580Z,3.90
2023-09-02T03:11:15.453Z,3.33
2023-09-02T03:13:42.241Z,3.63
2023-09-02T03:16:09.134Z,3.10
2023-09-02T03:18:35.971Z,3.50
2023-09-02T03:21:07.348Z,3.30
2023-09-02T03:23:35.596Z,3.40
2023-09-02T03:26:12.839Z,3.83
2023-09-02T03:28:39.666Z,4.23
2023-09-02T03:31:08.403Z,2.90
2023-09-02T03:33:35.717Z,2.80
2023-09-02T03:36:03.774Z,4.10
2023-09-02T03:38:31.411Z,3.20
2023-09-02T03:40:58.963Z,3.33
2023-09-02T03:43:25.762Z,3.30
2023-09-02T03:45:52.616Z,3.60
2023-09-02T03:48:20.337Z,3.30
2023-09-02T03:51:12.318Z,4.10
2023-09-02T03:53:42.845Z,3.30
2023-09-02T03:56:09.875Z,3.93
2023-09-02T03:58:37.210Z,3.80
2023-09-02T04:01:04.592Z,4.03
2023-09-02T04:03:37.662Z,3.60
2023-09-02T04:06:05.782Z,4.00
2023-09-02T04:08:35.508Z,4.47
2023-09-02T04:11:05.995Z,3.70
2023-09-02T04:13:32.774Z,3.80
2023-09-02T04:16:04.368Z,4.57
2023-09-02T04:18:34.378Z,4.30
2023-09-02T04:21:03.288Z,4.17
2023-09-02T04:23:30.772Z,3.87
2023-09-02T04:25:59.071Z,4.50
2023-09-02T04:28:26.100Z,3.77
2023-09-02T04:30:57.534Z,4.20
2023-09-02T04:33:25.366Z,3.97
2023-09-02T04:35:53.101Z,3.83
2023-09-02T04:38:20.327Z,4.30
2023-09-02T04:40:47.395Z,4.00
2023-09-02T04:43:15.968Z,4.30
2023-09-02T04:45:43.843Z,3.97
2023-09-02T04:48:11.214Z,3.90
2023-09-02T04:50:38.882Z,4.03
2023-09-02T04:53:06.304Z,3.50
2023-09-02T04:55:33.097Z,4.00
2023-09-02T04:58:00.111Z,4.50
2023-09-02T05:00:28.213Z,3.70
2023-09-02T05:02:55.368Z,3.90
2023-09-02T05:05:23.688Z,4.00
2023-09-02T05:07:50.843Z,3.20
2023-09-02T05:10:18.369Z,3.70
2023-09-02T05:12:45.188Z,3.40
2023-09-02T05:15:11.988Z,3.70
2023-09-02T05:17:38.811Z,3.67
2023-09-02T05:20:06.966Z,4.50
2023-09-02T05:22:34.604Z,3.60
2023-09-02T05:25:01.683Z,3.50
2023-09-02T05:27:28.489Z,3.60
2023-09-02T05:29:55.429Z,3.80
2023-09-02T05:32:22.446Z,3.70
2023-09-02T05:34:49.207Z,3.50
2023-09-02T05:37:16.009Z,3.40
2023-09-02T05:39:42.864Z,3.70
2023-09-02T05:42:09.609Z,3.20
2023-09-02T05:44:36.460Z,4.13
2023-09-02T05:47:03.800Z,3.70
2023-09-02T05:49:30.911Z,3.40
2023-09-02T05:51:57.652Z,3.70
2023-09-02T05:54:24.467Z,3.40
2023-09-02T05:56:51.310Z,4.00
2023-09-02T05:59:18.034Z,4.10
2023-09-02T06:01:45.781Z,4.30
2023-09-02T06:04:12.547Z,4.00
2023-09-02T06:06:39.296Z,3.63
2023-09-02T06:09:06.162Z,4.10
2023-09-02T06:11:32.894Z,3.80
2023-09-02T06:13:59.672Z,3.90
2023-09-02T06:16:26.491Z,4.20
2023-09-02T06:18:53.247Z,3.63
2023-09-02T06:21:20.068Z,3.20
2023-09-02T06:23:46.876Z,3.97
2023-09-02T06:26:14.017Z,5.03
2023-09-02T06:28:42.284Z,4.10
2023-09-02T06:31:10.581Z,4.00
2023-09-02T06:33:37.803Z,3.23
2023-09-02T06:36:12.759Z,3.60
2023-09-02T06:38:40.157Z,3.50
2023-09-02T06:41:14.863Z,3.10
2023-09-02T06:43:42.123Z,3.73
2023-09-02T06:46:13.240Z,4.43
2023-09-02T06:48:40.084Z,3.33
2023-09-02T06:51:06.850Z,3.10
2023-09-02T06:53:33.633Z,3.13
2023-09-02T06:56:00.452Z,3.30
2023-09-02T06:58:27.206Z,3.23
2023-09-02T07:00:54.085Z,2.83
2023-09-02T07:03:21.152Z,3.10
2023-09-02T07:05:48.077Z,3.00
2023-09-02T07:08:14.846Z,3.30
2023-09-02T07:10:41.896Z,3.87
2023-09-02T07:13:08.633Z,3.80
2023-09-02T07:15:36.607Z,3.60
2023-09-02T07:18:05.639Z,3.13
2023-09-02T07:20:36.396Z,3.27
2023-09-02T07:23:03.621Z,3.30
2023-09-02T07:25:30.445Z,2.80
2023-09-02T07:27:57.234Z,3.20
2023-09-02T07:30:23.975Z,2.90
2023-09-02T07:32:50.875Z,2.77
2023-09-02T07:35:17.727Z,3.60
2023-09-02T07:37:44.570Z,2.70
2023-09-02T07:40:11.855Z,3.00
2023-09-02T07:42:38.554Z,2.80
2023-09-02T07:45:05.745Z,2.60
2023-09-02T07:47:32.580Z,3.23
2023-09-02T07:49:59.364Z,2.90
2023-09-02T07:52:26.189Z,2.70
2023-09-02T07:54:52.888Z,2.77
2023-09-02T07:57:19.774Z,3.20
2023-09-02T07:59:46.536Z,2.67
2023-09-02T08:02:13.345Z,2.57
2023-09-02T08:04:40.314Z,2.57
2023-09-02T08:07:07.166Z,2.57
2023-09-02T08:09:33.925Z,2.60
2023-09-02T08:12:00.734Z,2.57
2023-09-02T08:14:27.586Z,2.90
2023-09-02T08:16:54.301Z,3.03
2023-09-02T08:19:21.120Z,2.70
2023-09-02T08:21:47.826Z,2.43
2023-09-02T08:24:14.670Z,2.30
2023-09-02T08:26:42.534Z,2.67
2023-09-02T08:29:10.096Z,2.20
2023-09-02T08:31:36.981Z,2.30
2023-09-02T08:34:03.796Z,2.70
2023-09-02T08:36:31.349Z,2.43
2023-09-02T08:38:58.139Z,2.47
2023-09-02T08:41:31.515Z,2.77
2023-09-02T08:44:02.395Z,2.47
2023-09-02T08:46:31.716Z,2.70
2023-09-02T08:48:59.850Z,2.60
2023-09-02T08:51:27.580Z,2.93
2023-09-02T08:53:56.063Z,3.00
2023-09-02T08:56:24.355Z,2.50
2023-09-02T08:58:52.126Z,3.40
2023-09-02T09:01:20.861Z,2.83
2023-09-02T09:03:54.431Z,2.90
2023-09-02T09:06:24.117Z,3.10
2023-09-02T09:08:55.586Z,2.60
2023-09-02T09:11:23.978Z,2.67
2023-09-02T09:13:54.360Z,2.50
2023-09-02T09:16:25.216Z,2.57
2023-09-02T09:18:52.140Z,2.57
2023-09-02T09:21:19.271Z,2.37
2023-09-02T09:23:46.582Z,2.80
2023-09-02T09:26:16.055Z,2.33
2023-09-02T09:28:54.242Z,2.70
2023-09-02T09:31:22.032Z,2.90
2023-09-02T09:33:54.619Z,2.60
2023-09-02T09:36:25.677Z,2.93
2023-09-02T09:38:55.328Z,2.37
2023-09-02T09:41:23.877Z,2.87
2023-09-02T09:44:24.092Z,2.70
2023-09-02T09:46:52.528Z,1.90
2023-09-02T09:49:26.269Z,2.73
2023-09-02T09:52:10.186Z,2.40
2023-09-02T09:54:43.805Z,2.60
2023-09-02T09:57:11.519Z,2.60
2023-09-02T09:59:38.759Z,2.70
2023-09-02T10:02:06.703Z,2.30
2023-09-02T10:04:34.261Z,2.13
2023-09-02T10:07:05.172Z,2.57
2023-09-02T10:09:45.660Z,2.07
2023-09-02T10:12:13.931Z,1.87
2023-09-02T10:14:42.490Z,2.27
2023-09-02T10:17:10.540Z,2.17
2023-09-02T10:19:38.284Z,2.37
2023-09-02T10:22:06.227Z,2.23
2023-09-02T10:24:59.242Z,2.10
2023-09-02T10:27:32.660Z,2.57
2023-09-02T10:30:01.747Z,1.87
2023-09-02T10:32:42.816Z,2.53
2023-09-02T10:35:20.241Z,1.73
2023-09-02T10:37:52.334Z,2.60
2023-09-02T10:40:27.561Z,2.07
2023-09-02T10:42:55.705Z,2.07
2023-09-02T10:45:22.947Z,2.20
2023-09-02T10:47:51.572Z,1.93
2023-09-02T10:50:21.042Z,1.80
2023-09-02T10:53:00.734Z,1.70
2023-09-02T10:56:04.300Z,1.90
2023-09-02T10:58:49.320Z,1.70
2023-09-02T11:01:16.357Z,1.40
2023-09-02T11:03:45.480Z,1.80
2023-09-02T11:06:18.555Z,1.70
2023-09-02T11:08:55.034Z,1.73
2023-09-02T11:11:22.520Z,1.70
2023-09-02T11:14:07.965Z,1.50
2023-09-02T11:16:41.891Z,1.53
2023-09-02T11:19:13.095Z,1.53
2023-09-02T11:21:47.556Z,1.43
2023-09-02T11:24:18.942Z,1.53
2023-09-02T11:26:53.094Z,1.90
2023-09-02T11:29:31.158Z,1.37
2023-09-02T11:32:05.713Z,1.50
2023-09-02T11:34:33.029Z,1.90
2023-09-02T11:37:00.505Z,1.60
2023-09-02T11:39:28.119Z,1.53
2023-09-02T11:42:14.208Z,1.80
2023-09-02T11:44:52.520Z,1.80
2023-09-02T11:47:19.428Z,1.30
2023-09-02T11:49:46.272Z,1.90
2023-09-02T11:52:13.047Z,1.33
2023-09-02T11:54:40.711Z,1.57
2023-09-02T11:57:07.484Z,1.37
2023-09-02T11:59:34.267Z,1.70
2023-09-02T12:02:11.709Z,1.70
2023-09-02T12:04:39.348Z,1.43
2023-09-02T12:07:07.440Z,1.87
2023-09-02T12:09:37.163Z,1.67
2023-09-02T12:12:04.778Z,1.50
2023-09-02T12:14:31.747Z,1.67
2023-09-02T12:17:00.514Z,1.60
2023-09-02T12:19:27.964Z,1.47
2023-09-02T12:21:55.510Z,1.17
2023-09-02T12:24:22.874Z,1.50
2023-09-02T12:26:51.047Z,1.97
2023-09-02T12:29:19.800Z,1.60
2023-09-02T12:31:57.015Z,1.60
2023-09-02T12:34:24.734Z,1.70
2023-09-02T12:36:52.158Z,1.50
2023-09-02T12:39:29.212Z,1.60
2023-09-02T12:41:57.242Z,1.17
2023-09-02T12:44:24.174Z,1.20
2023-09-02T12:46:51.293Z,2.00
2023-09-02T12:49:18.695Z,1.53
2023-09-02T12:51:45.908Z,1.80
2023-09-02T12:54:14.511Z,1.60
2023-09-02T12:56:41.825Z,1.80
2023-09-02T12:59:09.059Z,2.00
2023-09-02T13:01:39.355Z,1.60
2023-09-02T13:04:06.492Z,1.43
2023-09-02T13:06:33.594Z,1.50
2023-09-02T13:09:00.605Z,1.67
2023-09-02T13:11:28.410Z,1.43
2023-09-02T13:13:56.088Z,1.10
2023-09-02T13:16:23.101Z,1.73
2023-09-02T13:18:50.507Z,1.70
2023-09-02T13:21:17.330Z,1.23
2023-09-02T13:23:44.274Z,1.63
2023-09-02T13:26:18.297Z,1.40
2023-09-02T13:28:45.112Z,1.23
2023-09-02T13:31:13.452Z,1.33
2023-09-02T13:33:44.486Z,1.63
2023-09-02T13:36:12.824Z,1.30
2023-09-02T13:38:41.397Z,1.57
2023-09-02T13:41:10.744Z,1.40
2023-09-02T13:43:37.901Z,1.60
2023-09-02T13:46:10.686Z,1.80
2023-09-02T13:48:37.600Z,1.87
2023-09-02T13:51:05.387Z,1.30
2023-09-02T13:53:35.052Z,1.50
2023-09-02T13:56:02.573Z,1.80
2023-09-02T13:58:35.907Z,1.70
2023-09-02T14:01:04.167Z,1.50
2023-09-02T14:03:31.896Z,1.60
2023-09-02T14:06:04.431Z,1.63
2023-09-02T14:08:36.475Z,1.57
2023-09-02T14:11:04.633Z,1.40
2023-09-02T14:13:37.601Z,1.70
2023-09-02T14:16:05.089Z,1.57
2023-09-02T14:18:32.235Z,1.33
2023-09-02T14:20:59.182Z,1.67
2023-09-02T14:23:26.197Z,1.37
2023-09-02T14:25:53.249Z,1.97
2023-09-02T14:28:22.616Z,1.77
2023-09-02T14:30:49.751Z,1.90
2023-09-02T14:33:16.937Z,1.47
2023-09-02T14:35:44.191Z,1.40
2023-09-02T14:38:10.969Z,1.20
2023-09-02T14:40:37.769Z,1.53
2023-09-02T14:43:04.910Z,1.70
2023-09-02T14:45:33.199Z,1.50
2023-09-02T14:48:00.802Z,1.70
2023-09-02T14:50:28.710Z,1.40
2023-09-02T14:52:55.878Z,2.27
2023-09-02T14:55:22.796Z,1.80
2023-09-02T14:57:53.353Z,1.80
2023-09-02T15:00:20.654Z,1.23
2023-09-02T15:02:47.998Z,1.83
2023-09-02T15:05:19.138Z,1.87
2023-09-02T15:07:47.400Z,1.57
2023-09-02T15:10:23.522Z,1.77
2023-09-02T15:12:50.380Z,1.80
2023-09-02T15:15:18.910Z,1.53
2023-09-02T15:17:45.766Z,1.60
2023-09-02T15:20:23.309Z,1.43
2023-09-02T15:22:54.277Z,1.50
2023-09-02T15:25:27.691Z,1.83
2023-09-02T15:27:59.409Z,1.50
2023-09-02T15:30:35.228Z,1.53
2023-09-02T15:33:04.171Z,1.77
2023-09-02T15:35:33.149Z,1.93
2023-09-02T15:38:01.779Z,1.40
2023-09-02T15:40:31.526Z,1.87
2023-09-02T15:43:04.803Z,1.60
2023-09-02T15:45:31.761Z,1.60
2023-09-02T15:47:58.780Z,1.70
2023-09-02T15:50:26.292Z,1.80
2023-09-02T15:52:54.004Z,1.40
2023-09-02T15:55:21.786Z,1.70
2023-09-02T15:57:48.661Z,2.27
2023-09-02T16:00:15.759Z,1.60
2023-09-02T16:02:44.470Z,1.47
2023-09-02T16:05:11.415Z,2.27
2023-09-02T16:07:38.537Z,1.90
2023-09-02T16:10:05.954Z,2.10
2023-09-02T16:12:32.775Z,1.90
2023-09-02T16:14:59.532Z,1.93
2023-09-02T16:17:30.644Z,1.70
2023-09-02T16:19:57.643Z,1.90
2023-09-02T16:22:24.429Z,1.80
2023-09-02T16:24:53.260Z,1.47
2023-09-02T16:27:20.150Z,1.80
2023-09-02T16:29:48.532Z,1.73
2023-09-02T16:32:15.972Z,1.67
2023-09-02T16:34:46.244Z,1.80
2023-09-02T16:37:15.581Z,2.00
2023-09-02T16:39:43.859Z,2.23
2023-09-02T16:42:11.029Z,2.40
2023-09-02T16:44:37.915Z,1.80
2023-09-02T16:47:04.972Z,1.70
2023-09-02T16:49:32.076Z,2.60
2023-09-02T16:52:09.891Z,2.23
2023-09-02T16:54:37.695Z,1.73
2023-09-02T16:57:05.142Z,2.10
2023-09-02T16:59:32.003Z,2.10
2023-09-02T17:01:59.968Z,1.97
2023-09-02T17:04:27.119Z,1.90
2023-09-02T17:06:57.682Z,1.97
2023-09-02T17:09:26.976Z,1.57
2023-09-02T17:11:53.743Z,1.93
2023-09-02T17:14:20.572Z,1.57
2023-09-02T17:16:49.087Z,2.30
2023-09-02T17:19:18.784Z,1.77
2023-09-02T17:21:54.961Z,1.80
2023-09-02T17:24:21.835Z,1.97
2023-09-02T17:26:49.442Z,1.57
2023-09-02T17:29:19.287Z,2.20
2023-09-02T17:31:46.732Z,1.93
2023-09-02T17:34:13.577Z,2.10
2023-09-02T17:36:41.639Z,1.83
2023-09-02T17:39:08.420Z,1.73
2023-09-02T17:41:35.323Z,1.93
2023-09-02T17:44:02.121Z,1.97
2023-09-02T17:46:29.068Z,2.03
2023-09-02T17:48:55.950Z,2.27
2023-09-02T17:51:22.880Z,2.50
2023-09-02T17:53:49.650Z,2.03
2023-09-02T17:56:16.441Z,2.27
2023-09-02T17:58:43.333Z,2.50
2023-09-02T18:01:10.282Z,2.13
2023-09-02T18:03:37.171Z,2.40
2023-09-02T18:06:04.112Z,2.60
2023-09-02T18:08:42.611Z,3.10
2023-09-02T18:11:17.593Z,2.33
2023-09-02T18:13:44.403Z,2.27
2023-09-02T18:16:11.314Z,2.50
2023-09-02T18:18:38.113Z,2.57
2023-09-02T18:21:04.924Z,3.23
2023-09-02T18:23:31.773Z,2.73
2023-09-02T18:25:58.605Z,2.67
2023-09-02T18:28:25.344Z,2.17
2023-09-02T18:30:53.513Z,1.97
2023-09-02T18:33:20.293Z,2.60
2023-09-02T18:35:47.181Z,2.50
2023-09-02T18:38:13.925Z,2.57
2023-09-02T18:40:43.085Z,3.50
2023-09-02T18:43:09.988Z,6.50
2023-09-02T18:45:37.596Z,4.10
2023-09-02T18:48:05.880Z,4.40
2023-09-02T18:50:32.764Z,3.80
2023-09-02T18:52:59.642Z,3.53
2023-09-02T18:55:29.097Z,3.33
2023-09-02T18:57:55.910Z,3.47
2023-09-02T19:00:23.095Z,3.80
2023-09-02T19:03:01.301Z,4.10
2023-09-02T19:05:32.876Z,3.93
2023-09-02T19:07:59.623Z,4.03
2023-09-02T19:10:26.510Z,4.13
2023-09-02T19:12:53.398Z,3.93
2023-09-02T19:15:20.209Z,4.20
2023-09-02T19:17:47.062Z,4.17
2023-09-02T19:20:13.909Z,4.17
2023-09-02T19:22:42.679Z,4.60
2023-09-02T19:25:16.208Z,4.00
2023-09-02T19:27:44.642Z,4.43
2023-09-02T19:30:12.359Z,4.20
2023-09-02T19:32:39.182Z,4.13
2023-09-02T19:35:10.621Z,4.90
2023-09-02T19:37:50.421Z,4.77
2023-09-02T19:40:19.189Z,4.30
2023-09-02T19:42:50.347Z,5.17
2023-09-02T19:45:17.714Z,4.27
2023-09-02T19:47:44.606Z,4.30
2023-09-02T19:50:11.736Z,4.07
2023-09-02T19:52:38.671Z,4.23
2023-09-02T19:55:05.978Z,4.53
2023-09-02T19:57:33.190Z,4.87
2023-09-02T20:00:00.277Z,5.60
2023-09-02T20:02:27.191Z,5.43
2023-09-02T20:04:56.140Z,5.50
2023-09-02T20:07:23.035Z,6.00
2023-09-02T20:09:51.298Z,6.40
2023-09-02T20:12:18.298Z,6.30
2023-09-02T20:14:45.209Z,7.47
2023-09-02T20:17:12.162Z,6.80
2023-09-02T20:19:39.511Z,6.70
2023-09-02T20:22:06.739Z,6.50
2023-09-02T20:24:35.500Z,6.43
2023-09-02T20:27:04.869Z,6.57
2023-09-02T20:29:33.103Z,6.50
2023-09-02T20:32:00.589Z,6.53
2023-09-02T20:34:27.602Z,6.03
2023-09-02T20:36:54.595Z,6.20
2023-09-02T20:39:21.531Z,6.83
2023-09-02T20:41:49.229Z,7.93
2023-09-02T20:44:16.112Z,10.93
2023-09-02T20:46:42.929Z,11.43
2023-09-02T20:49:09.703Z,11.63
2023-09-02T20:51:36.531Z,10.10
2023-09-02T20:54:06.918Z,10.20
2023-09-02T20:56:34.148Z,8.23
2023-09-02T20:59:01.344Z,9.33
2023-09-02T21:01:28.614Z,7.77
2023-09-02T21:03:55.847Z,7.73
2023-09-02T21:06:22.748Z,7.00
2023-09-02T21:08:49.490Z,6.63
2023-09-02T21:11:17.982Z,7.57
2023-09-02T21:13:47.595Z,7.40
2023-09-02T21:16:17.128Z,6.53
2023-09-02T21:18:44.335Z,6.03
2023-09-02T21:21:17.073Z,6.67
2023-09-02T21:23:43.843Z,6.27
2023-09-02T21:26:11.322Z,6.60
2023-09-02T21:28:42.345Z,5.90
2023-09-02T21:31:10.024Z,5.87
2023-09-02T21:33:37.104Z,6.80
2023-09-02T21:36:04.079Z,6.30
2023-09-02T21:38:31.817Z,6.30
2023-09-02T21:41:06.106Z,6.70
2023-09-02T21:43:33.927Z,6.60
2023-09-02T21:46:05.366Z,7.27
2023-09-02T21:48:32.317Z,7.50
2023-09-02T21:51:07.021Z,6.77
2023-09-02T21:53:34.641Z,7.10
2023-09-02T21:56:01.696Z,6.40
2023-09-02T21:58:28.911Z,6.80
2023-09-02T22:01:14.350Z,6.87
2023-09-02T22:03:41.551Z,7.40
2023-09-02T22:06:12.918Z,7.80
2023-09-02T22:08:42.212Z,8.10
2023-09-02T22:11:09.623Z,7.53
2023-09-02T22:13:38.812Z,8.57
2023-09-02T22:16:06.814Z,7.43
2023-09-02T22:18:34.352Z,7.50
2023-09-02T22:21:01.722Z,7.37
2023-09-02T22:23:32.822Z,7.57
2023-09-02T22:26:02.318Z,8.10
2023-09-02T22:28:29.817Z,7.77
2023-09-02T22:30:57.643Z,7.40
2023-09-02T22:33:26.093Z,7.23
2023-09-02T22:35:53.657Z,7.77
2023-09-02T22:38:21.513Z,6.80
2023-09-02T22:40:54.593Z,7.73
2023-09-02T22:43:22.484Z,6.53
2023-09-02T22:45:49.825Z,7.50
2023-09-02T22:48:17.438Z,7.30
2023-09-02T22:50:45.784Z,6.70
2023-09-02T22:53:13.408Z,7.67
2023-09-02T22:55:40.999Z,7.53
2023-09-02T22:58:10.052Z,7.70
2023-09-02T23:00:37.265Z,7.60
2023-09-02T23:03:04.904Z,8.10
2023-09-02T23:05:32.569Z,7.17
2023-09-02T23:08:03.763Z,6.80
2023-09-02T23:10:33.880Z,7.30
2023-09-02T23:13:01.486Z,8.20
2023-09-02T23:15:29.013Z,7.20
2023-09-02T23:17:56.187Z,7.20
2023-09-02T23:20:28.470Z,7.60
2023-09-02T23:22:55.408Z,6.43
2023-09-02T23:25:25.405Z,7.07
2023-09-02T23:27:53.289Z,6.90
2023-09-02T23:30:20.859Z,7.00
2023-09-02T23:32:49.763Z,7.27
2023-09-02T23:35:16.674Z,6.63
2023-09-02T23:37:44.543Z,8.30
2023-09-02T23:40:11.706Z,7.03
2023-09-02T23:42:38.890Z,7.37
2023-09-02T23:45:06.318Z,6.17
2023-09-02T23:47:33.192Z,5.93
2023-09-02T23:50:00.004Z,6.80
2023-09-02T23:52:27.014Z,6.80
2023-09-02T23:54:53.987Z,6.93
2023-09-02T23:57:20.796Z,6.10
2023-09-02T23:59:47.662Z,6.87
